createdAt,value
2023-01-17T01:56:10.315Z,101517.03
2023-01-17T01:58:37.445Z,101481.95
2023-01-17T02:01:05.950Z,101477.96
2023-01-17T02:03:33.022Z,101482.38
2023-01-17T02:06:19.329Z,101474.50
2023-01-17T02:08:47.612Z,101471.48
2023-01-17T02:11:14.608Z,101472.65
2023-01-17T02:13:42.507Z,101469.30
2023-01-17T02:16:32.954Z,101472.87
2023-01-17T02:19:24.641Z,101472.80
2023-01-17T02:22:06.983Z,101475.15
2023-01-17T02:25:12.477Z,101468.66
2023-01-17T02:27:53.444Z,101472.23
2023-01-17T02:30:41.335Z,101468.13
2023-01-17T02:33:28.804Z,101460.76
2023-01-17T02:36:16.887Z,101453.14
2023-01-17T02:38:50.522Z,101449.51
2023-01-17T02:41:18.999Z,101447.05
2023-01-17T02:43:46.722Z,101449.16
2023-01-17T02:46:13.606Z,101451.15
2023-01-17T02:48:40.882Z,101445.82
2023-01-17T02:51:17.295Z,101445.42
2023-01-17T02:54:11.548Z,101444.08
2023-01-17T02:57:09.397Z,101442.95
2023-01-17T02:59:47.122Z,101443.61
2023-01-17T03:02:48.811Z,101438.88
2023-01-17T03:05:23.137Z,101441.61
2023-01-17T03:07:50.696Z,101446.27
2023-01-17T03:10:18.037Z,101450.93
2023-01-17T03:12:45.377Z,101453.55
2023-01-17T03:15:14.012Z,101460.30
2023-01-17T03:17:44.977Z,101461.49
2023-01-17T03:20:12.498Z,101462.20
2023-01-17T03:22:39.617Z,101460.98
2023-01-17T03:25:06.754Z,101461.86
2023-01-17T03:27:35.275Z,101463.92
2023-01-17T03:30:02.183Z,101459.38
2023-01-17T03:32:29.357Z,101459.85
2023-01-17T03:34:56.270Z,101455.81
2023-01-17T03:37:24.327Z,101455.10
2023-01-17T03:39:51.144Z,101451.98
2023-01-17T03:42:19.980Z,101457.55
2023-01-17T03:44:47.187Z,101460.02
2023-01-17T03:47:14.999Z,101461.33
2023-01-17T03:49:44.903Z,101458.38
2023-01-17T03:52:12.059Z,101460.86
2023-01-17T03:54:38.877Z,101456.68
2023-01-17T03:57:05.747Z,101463.17
2023-01-17T03:59:33.607Z,101459.19
2023-01-17T04:02:00.714Z,101460.38
2023-01-17T04:04:27.664Z,101467.98
2023-01-17T04:06:54.907Z,101466.93
2023-01-17T04:09:21.811Z,101463.13
2023-01-17T04:11:50.538Z,101458.78
2023-01-17T04:14:18.396Z,101457.75
2023-01-17T04:16:45.848Z,101456.38
2023-01-17T04:19:12.780Z,101453.08
2023-01-17T04:21:39.698Z,101453.43
2023-01-17T04:24:07.071Z,101451.36
2023-01-17T04:26:34.881Z,101446.72
2023-01-17T04:29:02.184Z,101441.52
2023-01-17T04:31:54.647Z,101439.80
2023-01-17T04:34:21.664Z,101439.80
2023-01-17T04:36:48.568Z,101437.58
2023-01-17T04:39:15.536Z,101437.98
2023-01-17T04:41:44.964Z,101431.44
2023-01-17T04:44:12.027Z,101426.61
2023-01-17T04:46:40.845Z,101430.27
2023-01-17T04:49:10.508Z,101441.38
2023-01-17T04:51:37.374Z,101459.91
2023-01-17T04:54:07.509Z,101469.45
2023-01-17T04:56:34.319Z,101472.56
2023-01-17T04:59:01.570Z,101473.42
2023-01-17T05:01:35.003Z,101476.92
2023-01-17T05:04:01.967Z,101475.38
2023-01-17T05:06:35.076Z,101473.30
2023-01-17T05:09:02.369Z,101477.64
2023-01-17T05:11:30.881Z,101473.10
2023-01-17T05:13:57.785Z,101472.59
2023-01-17T05:16:24.752Z,101468.63
2023-01-17T05:18:58.132Z,101467.95
2023-01-17T05:21:25.556Z,101470.22
2023-01-17T05:23:52.507Z,101478.23
2023-01-17T05:26:19.508Z,101473.77
2023-01-17T05:28:46.458Z,101480.19
2023-01-17T05:31:16.649Z,101488.73
2023-01-17T05:33:43.520Z,101494.54
2023-01-17T05:36:10.322Z,101505.72
2023-01-17T05:38:37.369Z,101507.64
2023-01-17T05:41:04.742Z,101515.09
2023-01-17T05:43:32.088Z,101511.61
2023-01-17T05:45:59.121Z,101509.37
2023-01-17T05:48:25.935Z,101506.08
2023-01-17T05:50:54.259Z,101508.71
2023-01-17T05:53:21.640Z,101506.15
2023-01-17T05:55:49.208Z,101518.69
2023-01-17T05:58:17.758Z,101531.17
2023-01-17T06:00:45.198Z,101532.29
2023-01-17T06:03:12.341Z,101524.20
2023-01-17T06:05:40.263Z,101522.36
2023-01-17T06:08:07.760Z,101521.08
2023-01-17T06:10:36.910Z,101532.59
2023-01-17T06:13:38.166Z,101526.88
2023-01-17T06:16:06.378Z,101524.70
2023-01-17T06:18:33.465Z,101518.14
2023-01-17T06:28:39.349Z,101536.67
2023-01-17T06:31:09.125Z,101544.52
2023-01-17T06:33:36.467Z,101543.58
2023-01-17T06:36:03.892Z,101545.59
2023-01-17T06:39:21.674Z,101546.23
2023-01-17T06:41:48.682Z,101551.62
2023-01-17T06:44:15.635Z,101547.23
2023-01-17T06:46:43.650Z,101553.08
2023-01-17T06:49:10.724Z,101554.81
2023-01-17T06:51:37.776Z,101564.02
2023-01-17T06:54:04.928Z,101569.91
2023-01-17T06:56:36.358Z,101567.27
2023-01-17T06:59:03.553Z,101572.90
2023-01-17T07:01:31.202Z,101579.72
2023-01-17T07:03:59.303Z,101576.42
2023-01-17T07:06:29.050Z,101575.56
2023-01-17T13:01:39.288Z,101517.16
2023-01-17T13:04:28.349Z,101512.09
2023-01-17T13:06:58.442Z,101513.30
2023-01-17T13:09:34.996Z,101517.86
2023-01-17T13:12:05.115Z,101528.52
2023-01-17T13:14:33.049Z,101539.16
2023-01-17T13:17:46.907Z,101537.95
2023-01-17T13:20:36.934Z,101545.63
2023-01-17T13:23:29.168Z,101554.69
2023-01-17T13:25:57.829Z,101565.17
2023-01-17T13:29:00.355Z,101573.38
2023-01-17T13:31:56.684Z,101583.48
2023-01-17T13:34:54.931Z,101584.38
2023-01-17T13:38:08.941Z,101592.05
2023-01-17T13:41:15.262Z,101608.80
2023-01-17T13:44:06.390Z,101619.47
2023-01-17T13:47:00.696Z,101623.99
2023-01-17T13:49:36.533Z,101638.50
2023-01-17T13:52:11.766Z,101647.92
2023-01-17T13:54:55.831Z,101650.52
2023-01-17T13:57:22.739Z,101656.64
2023-01-17T13:59:49.801Z,101665.54
2023-01-17T14:02:32.203Z,101674.27
2023-01-17T14:05:18.349Z,101681.06
2023-01-17T14:07:54.789Z,101692.93
2023-01-17T14:10:46.658Z,101698.70
2023-01-17T14:13:34.571Z,101705.31
2023-01-17T14:16:02.748Z,101711.77
2023-01-17T14:18:40.276Z,101725.55
2023-01-17T14:21:29.760Z,101737.95
2023-01-17T14:24:13.280Z,101746.14
2023-01-17T14:26:41.533Z,101759.42
2023-01-17T14:29:44.050Z,101766.39
2023-01-17T14:32:24.777Z,101781.39
2023-01-17T14:35:21.101Z,101781.20
2023-01-17T14:37:51.230Z,101790.11
2023-01-17T14:41:12.078Z,101798.84
2023-01-17T14:43:41.617Z,101809.48
2023-01-17T14:46:17.269Z,101816.10
2023-01-17T14:48:44.408Z,101827.81
2023-01-17T14:51:13.305Z,101833.73
2023-01-17T14:53:40.772Z,101848.76
2023-01-17T14:56:15.761Z,101855.92
2023-01-17T14:58:46.758Z,101866.94
2023-01-17T15:01:20.564Z,101874.79
2023-01-17T15:03:53.616Z,101886.33
2023-01-17T15:06:24.954Z,101887.73
2023-01-17T15:08:54.978Z,101899.61
2023-01-17T15:11:24.969Z,101900.33
2023-01-17T15:13:55.015Z,101902.77
2023-01-17T15:16:24.828Z,101907.65
2023-01-17T15:18:53.237Z,101912.15
2023-01-17T15:21:22.042Z,101916.86
2023-01-17T15:23:54.593Z,101924.89
2023-01-17T15:26:24.036Z,101936.75
2023-01-17T15:28:52.277Z,101947.05
2023-01-17T15:31:49.583Z,101951.77
2023-01-17T15:35:08.357Z,101973.08
2023-01-17T15:37:37.352Z,101967.83
2023-01-17T15:40:18.117Z,101976.89
2023-01-17T15:42:47.863Z,101988.77
2023-01-17T15:45:16.872Z,101994.54
2023-01-17T15:47:47.801Z,101999.42
2023-01-17T15:53:32.520Z,102033.33
2023-01-17T15:56:01.465Z,102031.08
2023-01-17T15:58:30.234Z,102031.61
2023-01-17T16:00:57.587Z,102035.95
2023-01-17T16:03:28.019Z,102035.25
2023-01-17T16:05:57.949Z,102036.14
2023-01-17T16:08:38.843Z,102044.86
2023-01-17T16:11:07.103Z,102062.50
2023-01-17T21:37:26.538Z,102058.08
2023-01-17T21:40:03.076Z,102246.14
2023-01-17T21:42:34.317Z,102416.81
2023-01-17T21:45:04.792Z,102575.60
2023-01-17T21:47:35.782Z,102722.68
2023-01-17T21:50:05.776Z,102842.16
2023-01-17T21:52:33.589Z,102942.14
2023-01-17T21:55:24.234Z,103021.87
2023-01-17T21:58:11.496Z,103098.84
2023-01-17T22:00:43.046Z,103161.44
2023-01-17T22:03:11.044Z,103193.09
2023-01-17T22:06:29.343Z,103239.14
2023-01-17T22:08:56.711Z,103305.30
2023-01-17T22:11:31.215Z,103316.71
2023-01-17T22:13:59.500Z,103347.83
2023-01-17T22:16:26.927Z,103365.65
2023-01-17T22:18:54.025Z,103387.85
2023-01-17T22:21:26.410Z,103402.55
2023-01-17T22:23:55.061Z,103420.02
2023-01-17T22:26:24.153Z,103425.64
2023-01-17T22:28:51.463Z,103438.61
2023-01-17T22:31:44.426Z,103448.24
2023-01-17T22:34:13.168Z,103468.86
2023-01-17T22:36:46.115Z,103469.93
2023-01-17T22:39:13.252Z,103477.26
2023-01-17T22:42:10.235Z,103476.05
2023-01-17T22:44:38.122Z,103498.41
2023-01-17T22:47:05.826Z,103483.20
2023-01-17T22:49:35.803Z,103489.86
2023-01-17T22:52:03.276Z,103493.94
2023-01-17T22:54:31.850Z,103499.40
2023-01-17T22:56:59.076Z,103508.23
2023-01-17T22:59:26.741Z,103513.20
2023-01-17T23:01:53.833Z,103517.90
2023-01-17T23:04:20.920Z,103514.74
2023-01-17T23:06:47.939Z,103512.88
2023-01-17T23:09:15.429Z,103511.66
2023-01-17T23:11:48.851Z,103515.49
2023-01-17T23:14:19.945Z,103513.73
2023-01-17T23:17:30.946Z,103512.51
2023-01-17T23:20:23.307Z,103514.61
2023-01-17T23:22:50.695Z,103499.55
2023-01-17T23:25:17.810Z,103491.92
2023-01-17T23:28:04.554Z,103495.85
2023-01-17T23:30:35.986Z,103502.14
2023-01-17T23:33:05.316Z,103499.68
2023-01-17T23:35:34.992Z,103498.34
2023-01-17T23:38:21.622Z,103494.16
2023-01-17T23:41:08.865Z,103487.86
2023-01-17T23:43:36.257Z,103479.59
2023-01-17T23:46:05.403Z,103475.52
2023-01-17T23:48:33.172Z,103483.52
2023-01-17T23:51:09.538Z,103485.83
2023-01-17T23:53:37.619Z,103484.83
2023-01-17T23:56:07.001Z,103488.70
2023-01-17T23:58:34.508Z,103497.11
